createdAt,value
2018-04-15T00:01:20.131Z,15.20
2018-04-15T00:03:48.361Z,15.10
2018-04-15T00:06:15.832Z,15.10
2018-04-15T00:08:43.300Z,15.00
2018-04-15T00:11:10.749Z,15.00
2018-04-15T00:13:38.980Z,15.00
2018-04-15T00:16:06.459Z,14.90
2018-04-15T00:18:33.916Z,14.90
2018-04-15T00:21:01.381Z,14.90
2018-04-15T00:23:28.836Z,14.80
2018-04-15T00:25:56.308Z,14.80
2018-04-15T00:28:23.873Z,14.80
2018-04-15T00:30:51.333Z,14.70
2018-04-15T00:33:19.552Z,14.60
2018-04-15T00:35:47.020Z,14.60
2018-04-15T00:38:14.509Z,14.60
2018-04-15T00:40:42.097Z,14.60
2018-04-15T00:43:09.552Z,14.60
2018-04-15T00:45:37.124Z,14.60
2018-04-15T00:48:04.583Z,14.50
2018-04-15T00:50:32.048Z,14.50
2018-04-15T00:52:59.501Z,14.40
2018-04-15T00:55:27.004Z,14.40
2018-04-15T00:57:54.460Z,14.30
2018-04-15T01:00:21.935Z,14.30
2018-04-15T01:02:49.420Z,14.30
2018-04-15T01:05:16.910Z,14.30
2018-04-15T01:07:44.378Z,14.20
2018-04-15T01:10:13.422Z,14.20
2018-04-15T01:12:40.928Z,14.20
2018-04-15T01:15:08.384Z,14.20
2018-04-15T01:17:35.857Z,14.20
2018-04-15T01:20:03.402Z,14.20
2018-04-15T01:22:30.876Z,14.20
2018-04-15T01:24:58.320Z,14.20
2018-04-15T01:27:26.557Z,14.10
2018-04-15T01:29:54.012Z,14.10
2018-04-15T01:32:21.480Z,14.10
2018-04-15T01:34:48.940Z,14.10
2018-04-15T01:37:16.412Z,14.10
2018-04-15T01:39:43.876Z,14.10
2018-04-15T01:42:12.177Z,14.10
2018-04-15T01:44:39.632Z,14.10
2018-04-15T01:47:07.089Z,14.10
2018-04-15T01:49:35.324Z,14.10
2018-04-15T01:52:02.784Z,14.10
2018-04-15T01:54:30.252Z,14.10
2018-04-15T01:56:57.805Z,14.10
2018-04-15T01:59:26.029Z,14.00
2018-04-15T02:01:53.485Z,14.00
2018-04-15T02:04:20.954Z,14.00
2018-04-15T02:06:48.408Z,13.90
2018-04-15T02:09:15.912Z,13.90
2018-04-15T02:11:43.372Z,13.90
2018-04-15T02:14:10.836Z,13.80
2018-04-15T02:16:38.292Z,13.90
2018-04-15T02:19:05.752Z,13.80
2018-04-15T02:21:33.212Z,13.80
2018-04-15T02:24:01.510Z,13.70
2018-04-15T02:26:29.716Z,13.70
2018-04-15T02:28:57.208Z,13.70
2018-04-15T02:31:24.672Z,13.60
2018-04-15T02:33:52.209Z,13.60
2018-04-15T02:36:20.434Z,13.60
2018-04-15T02:38:47.898Z,13.60
2018-04-15T02:41:15.440Z,13.60
2018-04-15T02:43:42.953Z,13.60
2018-04-15T02:46:10.525Z,13.50
2018-04-15T02:48:37.979Z,13.50
2018-04-15T02:51:05.444Z,13.50
2018-04-15T02:53:32.929Z,13.50
2018-04-15T02:56:00.500Z,13.50
2018-04-15T02:58:27.961Z,13.50
2018-04-15T03:00:55.440Z,13.50
2018-04-15T03:03:22.909Z,13.50
2018-04-15T03:05:50.385Z,13.50
2018-04-15T03:08:17.853Z,13.50
2018-04-15T03:10:45.390Z,13.60
2018-04-15T03:13:12.852Z,13.60
2018-04-15T03:15:40.321Z,13.50
2018-04-15T03:18:07.784Z,13.50
2018-04-15T03:20:36.020Z,13.50
2018-04-15T03:23:03.601Z,13.50
2018-04-15T03:25:31.053Z,13.50
2018-04-15T03:27:58.516Z,13.50
2018-04-15T03:30:26.004Z,13.40
2018-04-15T03:32:53.482Z,13.30
2018-04-15T03:35:20.944Z,13.30
2018-04-15T03:37:48.412Z,13.30
2018-04-15T03:40:15.879Z,13.30
2018-04-15T03:42:43.348Z,13.20
2018-04-15T03:45:10.808Z,13.20
2018-04-15T03:47:38.277Z,13.10
2018-04-15T03:50:05.728Z,13.10
2018-04-15T03:52:33.236Z,13.10
2018-04-15T03:55:00.808Z,13.10
2018-04-15T03:57:28.284Z,13.20
2018-04-15T03:59:55.755Z,13.20
2018-04-15T04:02:23.212Z,13.30
2018-04-15T04:04:50.680Z,13.20
2018-04-15T04:07:18.132Z,13.20
2018-04-15T04:09:45.633Z,13.20
2018-04-15T04:12:13.087Z,13.10
2018-04-15T04:14:40.553Z,13.10
2018-04-15T04:17:08.008Z,13.00
2018-04-15T04:19:47.492Z,13.00
2018-04-15T04:22:26.880Z,13.00
2018-04-15T04:27:54.980Z,13.10
2018-04-15T04:30:22.505Z,13.10
2018-04-15T04:32:50.716Z,13.00
2018-04-15T04:35:18.180Z,13.00
2018-04-15T04:37:45.632Z,12.90
2018-04-15T04:40:13.101Z,12.90
2018-04-15T04:42:40.548Z,12.80
2018-04-15T04:45:08.802Z,12.90
2018-04-15T04:47:37.148Z,12.80
2018-04-15T04:50:04.652Z,12.80
2018-04-15T04:52:32.116Z,12.80
2018-04-15T04:54:59.725Z,12.70
2018-04-15T04:57:27.234Z,12.80
2018-04-15T04:59:54.684Z,12.90
2018-04-15T05:02:22.928Z,12.80
2018-04-15T05:04:50.396Z,12.80
2018-04-15T05:07:17.860Z,12.80
2018-04-15T05:09:45.312Z,12.80
2018-04-15T05:12:12.808Z,12.80
2018-04-15T05:14:40.285Z,12.90
2018-04-15T05:17:07.885Z,12.90
2018-04-15T05:19:35.316Z,12.90
2018-04-15T05:22:02.784Z,12.90
2018-04-15T05:24:30.240Z,12.80
2018-04-15T05:26:57.717Z,12.80
2018-04-15T05:29:25.197Z,12.90
2018-04-15T05:31:52.653Z,12.90
2018-04-15T05:34:20.120Z,12.90
2018-04-15T05:36:47.576Z,12.90
2018-04-15T05:39:15.051Z,12.90
2018-04-15T05:41:42.505Z,12.90
2018-04-15T05:44:10.084Z,12.90
2018-04-15T05:47:33.433Z,12.90
2018-04-15T05:50:00.876Z,13.00
2018-04-15T05:52:28.348Z,13.00
2018-04-15T05:54:55.922Z,13.00
2018-04-15T05:57:23.399Z,12.90
2018-04-15T05:59:50.956Z,12.90
2018-04-15T06:02:18.417Z,12.90
2018-04-15T06:04:45.885Z,13.00
2018-04-15T06:07:13.336Z,13.00
2018-04-15T06:09:40.824Z,12.90
2018-04-15T06:12:08.288Z,12.90
2018-04-15T06:14:35.776Z,13.00
2018-04-15T06:17:03.411Z,13.00
2018-04-15T06:19:31.625Z,13.00
2018-04-15T06:21:59.076Z,13.00
2018-04-15T06:24:26.645Z,13.00
2018-04-15T06:26:54.088Z,13.00
2018-04-15T06:29:22.312Z,13.00
2018-04-15T06:31:49.818Z,12.90
2018-04-15T06:34:17.341Z,13.00
2018-04-15T06:36:44.806Z,13.00
2018-04-15T06:39:13.025Z,13.10
2018-04-15T06:41:40.480Z,13.10
2018-04-15T06:44:07.936Z,13.20
2018-04-15T06:46:35.412Z,13.20
2018-04-15T06:49:02.910Z,13.30
2018-04-15T06:51:30.368Z,13.40
2018-04-15T06:53:57.902Z,13.50
2018-04-15T06:56:25.317Z,13.60
2018-04-15T06:58:52.777Z,13.80
2018-04-15T07:01:20.250Z,13.90
2018-04-15T07:03:47.732Z,13.90
2018-04-15T07:06:15.184Z,13.90
2018-04-15T07:08:42.661Z,14.00
2018-04-15T07:11:10.141Z,13.90
2018-04-15T07:13:37.627Z,13.90
2018-04-15T07:16:05.097Z,13.80
2018-04-15T07:18:32.553Z,13.80
2018-04-15T07:20:59.996Z,13.80
2018-04-15T07:23:27.465Z,13.90
2018-04-15T07:25:54.908Z,14.40
2018-04-15T07:28:23.125Z,15.20
2018-04-15T07:30:50.923Z,15.20
2018-04-15T07:33:18.372Z,15.10
2018-04-15T07:35:45.929Z,15.00
2018-04-15T07:38:13.427Z,15.10
2018-04-15T07:40:40.881Z,15.30
2018-04-15T07:43:08.343Z,15.00
2018-04-15T07:45:35.811Z,15.20
2018-04-15T07:48:03.261Z,15.80
2018-04-15T07:50:31.597Z,16.70
2018-04-15T07:52:59.083Z,16.70
2018-04-15T07:55:26.548Z,17.10
2018-04-15T07:57:54.004Z,17.70
2018-04-15T08:00:21.489Z,18.10
2018-04-15T08:02:48.944Z,17.70
2018-04-15T08:05:16.405Z,17.00
2018-04-15T08:07:43.877Z,16.40
2018-04-15T08:10:11.327Z,16.20
2018-04-15T08:12:38.794Z,16.00
2018-04-15T08:15:07.021Z,15.40
2018-04-15T08:17:34.470Z,15.30
2018-04-15T08:20:01.965Z,15.70
2018-04-15T08:22:29.451Z,15.90
2018-04-15T08:24:56.892Z,16.00
2018-04-15T08:27:24.372Z,16.10
2018-04-15T08:29:51.944Z,16.20
2018-04-15T08:32:19.420Z,16.30
2018-04-15T08:34:46.864Z,16.70
2018-04-15T08:37:14.425Z,17.30
2018-04-15T08:39:41.972Z,17.00
2018-04-15T08:42:09.517Z,17.40
2018-04-15T08:44:37.829Z,18.40
2018-04-15T08:47:06.133Z,18.60
2018-04-15T08:49:33.646Z,18.60
2018-04-15T08:52:01.120Z,19.20
2018-04-15T08:54:28.568Z,19.40
2018-04-15T08:56:56.012Z,18.80
2018-04-15T08:59:23.472Z,19.10
2018-04-15T09:01:51.689Z,19.80
2018-04-15T09:04:19.153Z,19.80
2018-04-15T09:06:46.600Z,19.40
2018-04-15T09:09:14.844Z,20.10
2018-04-15T09:11:42.294Z,20.10
2018-04-15T09:14:09.752Z,20.00
2018-04-15T09:18:41.715Z,19.70
2018-04-15T09:21:09.185Z,20.00
2018-04-15T09:23:37.601Z,19.60
2018-04-15T09:26:05.057Z,19.60
2018-04-15T09:28:33.293Z,20.60
2018-04-15T09:31:06.480Z,20.60
2018-04-15T09:33:33.948Z,21.10
2018-04-15T09:36:01.412Z,20.80
2018-04-15T09:38:28.876Z,21.00
2018-04-15T09:40:56.348Z,21.50
2018-04-15T09:43:23.788Z,21.50
2018-04-15T09:45:52.004Z,22.50
2018-04-15T09:48:19.476Z,22.40
2018-04-15T09:50:47.042Z,22.50
2018-04-15T09:53:15.329Z,22.50
2018-04-15T09:55:43.684Z,22.40
2018-04-15T09:58:11.132Z,22.40
2018-04-15T10:00:38.576Z,22.30
2018-04-15T10:03:06.044Z,23.30
2018-04-15T10:05:33.493Z,23.60
2018-04-15T10:08:00.944Z,23.20
2018-04-15T10:10:29.173Z,22.90
2018-04-15T10:12:56.625Z,22.90
2018-04-15T10:15:24.104Z,22.90
2018-04-15T10:17:51.665Z,23.50
2018-04-15T10:20:19.176Z,23.60
2018-04-15T10:22:46.636Z,23.00
2018-04-15T10:25:14.124Z,22.80
2018-04-15T10:27:41.600Z,23.10
2018-04-15T10:30:09.117Z,23.40
2018-04-15T10:32:36.571Z,24.30
2018-04-15T10:35:04.796Z,24.60
2018-04-15T10:37:32.260Z,24.60
2018-04-15T10:39:59.816Z,23.20
2018-04-15T10:42:28.142Z,23.70
2018-04-15T10:44:55.616Z,23.70
2018-04-15T10:47:23.061Z,23.70
2018-04-15T10:49:50.520Z,23.00
2018-04-15T10:52:17.978Z,23.10
2018-04-15T10:54:46.275Z,24.70
2018-04-15T10:57:13.784Z,24.60
2018-04-15T10:59:41.357Z,23.80
2018-04-15T11:02:08.828Z,24.00
2018-04-15T11:04:36.310Z,24.00
2018-04-15T11:07:03.828Z,24.40
2018-04-15T11:09:32.048Z,24.10
2018-04-15T11:11:59.544Z,24.10
2018-04-15T11:14:26.992Z,24.00
2018-04-15T11:16:54.448Z,24.20
2018-04-15T11:19:21.897Z,24.50
2018-04-15T11:21:49.361Z,25.20
2018-04-15T11:24:17.568Z,25.30
2018-04-15T11:26:45.036Z,25.30
2018-04-15T11:29:12.541Z,25.30
2018-04-15T11:31:39.984Z,25.80
2018-04-15T11:34:07.448Z,25.60
2018-04-15T11:36:34.947Z,25.70
2018-04-15T11:39:02.408Z,24.90
2018-04-15T11:41:29.876Z,25.30
2018-04-15T11:43:57.552Z,25.40
2018-04-15T16:32:14.318Z,19.90
2018-04-15T16:34:41.765Z,19.80
2018-04-15T16:37:09.280Z,19.70
2018-04-15T16:39:36.757Z,19.60
2018-04-15T16:42:04.329Z,19.60
2018-04-15T16:44:31.787Z,19.60
2018-04-15T16:46:59.259Z,19.40
2018-04-15T16:49:26.712Z,19.40
2018-04-15T16:51:54.185Z,19.30
2018-04-15T16:54:21.684Z,19.30
2018-04-15T16:56:49.242Z,19.30
2018-04-15T16:59:16.688Z,19.30
2018-04-15T17:01:44.248Z,19.30
2018-04-15T17:04:11.754Z,19.20
2018-04-15T17:06:39.205Z,19.10
2018-04-15T17:09:06.680Z,19.00
2018-04-15T17:11:34.132Z,19.00
2018-04-15T17:14:01.585Z,19.00
2018-04-15T17:16:29.873Z,18.90
2018-04-15T17:18:58.104Z,18.90
2018-04-15T17:21:25.584Z,18.90
2018-04-15T17:23:53.047Z,18.90
2018-04-15T17:26:20.507Z,18.80
2018-04-15T17:28:47.965Z,18.80
2018-04-15T17:31:15.526Z,18.80
2018-04-15T17:33:43.814Z,18.80
2018-04-15T17:36:11.260Z,18.70
2018-04-15T17:38:39.496Z,18.60
2018-04-15T17:41:06.946Z,18.60
2018-04-15T17:43:34.449Z,18.60
2018-04-15T17:46:03.485Z,18.60
2018-04-15T17:48:30.946Z,18.60
2018-04-15T17:50:58.385Z,18.60
2018-04-15T17:53:25.852Z,18.60
2018-04-15T17:55:53.332Z,18.60
2018-04-15T17:58:20.781Z,18.60
2018-04-15T18:00:48.262Z,18.50
2018-04-15T18:03:15.760Z,18.60
2018-04-15T18:05:43.276Z,18.50
2018-04-15T18:08:10.757Z,18.50
2018-04-15T18:10:38.257Z,18.50
2018-04-15T18:13:05.793Z,18.40
2018-04-15T18:15:33.249Z,18.40
2018-04-15T18:18:00.703Z,18.30
2018-04-15T18:20:28.168Z,18.20
2018-04-15T18:22:55.658Z,18.10
2018-04-15T18:25:23.971Z,17.90
2018-04-15T18:27:51.445Z,17.90
2018-04-15T18:30:18.913Z,17.70
2018-04-15T18:32:46.421Z,17.70
2018-04-15T18:35:13.877Z,17.50
2018-04-15T18:37:41.360Z,17.40
2018-04-15T18:40:08.822Z,17.30
2018-04-15T18:42:36.265Z,17.20
2018-04-15T18:45:04.518Z,17.00
2018-04-15T18:47:32.043Z,17.00
2018-04-15T18:50:00.275Z,16.80
2018-04-15T18:52:27.744Z,16.80
2018-04-15T18:54:55.188Z,16.70
2018-04-15T18:57:22.637Z,16.70
2018-04-15T18:59:50.105Z,16.60
2018-04-15T19:02:17.690Z,16.50
2018-04-15T19:04:45.206Z,16.50
2018-04-15T19:07:12.679Z,16.40
2018-04-15T19:09:40.265Z,16.30
2018-04-15T19:12:08.615Z,16.20
2018-04-15T19:14:36.053Z,16.10
2018-04-15T19:17:03.504Z,16.00
2018-04-15T19:19:30.956Z,15.90
2018-04-15T19:21:58.425Z,15.80
2018-04-15T19:24:25.876Z,15.80
2018-04-15T19:26:53.370Z,15.70
2018-04-15T19:29:20.926Z,15.70
2018-04-15T19:31:48.373Z,15.70
2018-04-15T19:34:16.620Z,15.50
2018-04-15T19:36:44.089Z,15.50
2018-04-15T19:39:11.556Z,15.50
2018-04-15T19:41:39.040Z,15.40
2018-04-15T19:44:06.590Z,15.40
2018-04-15T19:46:34.035Z,15.40
2018-04-15T19:49:01.502Z,15.30
2018-04-15T19:51:28.986Z,15.20
2018-04-15T19:53:56.438Z,15.20
2018-04-15T19:56:23.912Z,15.00
2018-04-15T19:58:51.485Z,15.00
2018-04-15T20:01:18.936Z,14.90
2018-04-15T20:03:47.184Z,14.90
2018-04-15T20:06:14.753Z,14.90
2018-04-15T20:08:42.200Z,14.80
2018-04-15T20:11:09.781Z,14.90
2018-04-15T20:13:37.996Z,14.80
2018-04-15T20:16:05.456Z,14.80
2018-04-15T20:18:32.930Z,14.80
2018-04-15T20:21:00.392Z,14.80
2018-04-15T20:23:27.914Z,14.70
2018-04-15T20:25:55.375Z,14.80
2018-04-15T20:28:22.842Z,14.70
2018-04-15T20:30:50.409Z,14.70
2018-04-15T20:33:17.905Z,14.60
2018-04-15T20:35:45.376Z,14.60
2018-04-15T20:38:12.845Z,14.60
2018-04-15T20:40:40.299Z,14.50
2018-04-15T20:43:07.818Z,14.50
2018-04-15T20:45:35.270Z,14.50
2018-04-15T20:48:03.577Z,14.40
2018-04-15T20:50:31.804Z,14.30
2018-04-15T20:52:59.261Z,14.30
2018-04-15T20:55:26.740Z,14.30
2018-04-15T20:57:54.312Z,14.30
2018-04-15T21:00:21.757Z,14.30
2018-04-15T21:02:49.210Z,14.20
2018-04-15T21:05:17.449Z,14.10
2018-04-15T21:07:44.912Z,14.10
2018-04-15T21:10:12.397Z,14.10
2018-04-15T21:12:39.948Z,14.10
2018-04-15T21:15:07.497Z,14.10
2018-04-15T21:17:35.002Z,14.10
2018-04-15T21:20:02.528Z,14.10
2018-04-15T21:22:30.032Z,14.10
2018-04-15T21:24:57.480Z,14.10
2018-04-15T21:27:24.976Z,14.10
2018-04-15T21:29:52.453Z,14.10
2018-04-15T21:32:19.909Z,14.10
2018-04-15T21:34:47.454Z,14.10
2018-04-15T21:37:14.914Z,14.10
2018-04-15T21:39:43.129Z,14.10
2018-04-15T21:42:10.691Z,14.10
2018-04-15T21:44:38.147Z,14.10
2018-04-15T21:47:06.357Z,14.00
2018-04-15T21:49:33.820Z,14.00
2018-04-15T21:52:01.269Z,13.90
2018-04-15T21:54:28.716Z,13.90
2018-04-15T21:56:56.952Z,13.90
2018-04-15T21:59:24.400Z,13.90
2018-04-15T22:01:51.913Z,13.80
2018-04-15T22:04:19.387Z,13.80
2018-04-15T22:06:46.849Z,13.70
2018-04-15T22:09:14.326Z,13.70
2018-04-15T22:11:53.936Z,13.70
2018-04-15T22:14:22.155Z,13.50
2018-04-15T22:16:49.600Z,13.50
2018-04-15T22:19:17.078Z,13.50
2018-04-15T22:21:44.520Z,13.50
2018-04-15T22:24:12.732Z,13.30
2018-04-15T22:26:40.213Z,13.30
2018-04-15T22:29:07.700Z,13.30
2018-04-15T22:31:35.145Z,13.30
2018-04-15T22:34:02.615Z,13.20
2018-04-15T22:36:30.105Z,13.20
2018-04-15T22:38:57.610Z,13.20
2018-04-15T22:41:25.113Z,13.20
2018-04-15T22:43:53.319Z,13.20
2018-04-15T22:46:20.809Z,13.20
2018-04-15T22:48:48.270Z,13.10
2018-04-15T22:51:15.821Z,13.10
2018-04-15T22:53:43.385Z,13.10
2018-04-15T22:56:10.828Z,13.00
2018-04-15T22:58:44.889Z,12.90
2018-04-15T23:01:12.455Z,12.90
2018-04-15T23:03:39.896Z,12.90
2018-04-15T23:06:08.136Z,12.80
2018-04-15T23:08:35.612Z,12.80
2018-04-15T23:11:03.061Z,12.80
2018-04-15T23:13:30.535Z,12.70
2018-04-15T23:15:57.981Z,12.70
2018-04-15T23:18:25.436Z,12.70
2018-04-15T23:20:53.672Z,12.60
2018-04-15T23:23:21.149Z,12.60
2018-04-15T23:25:48.605Z,12.50
2018-04-15T23:28:16.075Z,12.50
2018-04-15T23:30:43.529Z,12.50
2018-04-15T23:33:10.982Z,12.60
2018-04-15T23:35:39.318Z,12.50
2018-04-15T23:38:06.766Z,12.50
2018-04-15T23:40:34.213Z,12.50
2018-04-15T23:43:01.728Z,12.50
2018-04-15T23:45:29.191Z,12.50
2018-04-15T23:47:56.734Z,12.40
2018-04-15T23:50:24.208Z,12.40
2018-04-15T23:52:51.685Z,12.30
2018-04-15T23:55:19.184Z,12.30
2018-04-15T23:57:46.650Z,12.30
